Flight Track Log - Related Links

Times and Time Zones

All times are in EDT time to prevent confusion due to time zone crossing. See the SWA2004 flight status page for this flight to view local times or setup timezone preferences in your user account.

Time Position Orientation Groundspeed Altitude Reporting Facility
EDT Latitude Longitude Course Direction KTS MPH feet Rate Location/Type
Sun 07:43:42 PM 26.0750 -80.1367 85° East 178 205 600  Level Miami Center
Sun 07:44:24 PM 26.0781 -80.0950 85° East 212 244 1,900 2,633 Climbing Miami Center
Sun 07:45:20 PM 26.0878 -80.0331 80° East 223 257 4,900 1,590 Climbing Miami Center
Sun 07:46:21 PM 26.1544 -80.0300 North 281 323 5,000 49 Climbing Miami Center
Sun 07:47:22 PM 26.2183 -80.0758 327° Northwest 272 313 5,000 1,525 Level Miami Center
Sun 07:48:23 PM 26.2908 -80.1033 341° North 274 315 8,100 2,880 Climbing Miami Center
Sun 07:49:27 PM 26.3633 -80.1353 338° Northwest 300 345 11,000 1,742 Climbing Miami Center
Sun 07:50:27 PM 26.4181 -80.2064 311° West 298 343 11,700 1,550 Climbing Miami Center
Sun 07:51:27 PM 26.4847 -80.2964 310° West 325 374 14,100 2,500 Climbing Miami Center
Sun 07:52:27 PM 26.5544 -80.3497 326° Northwest 334 384 16,700 2,850 Climbing Miami Center
Sun 07:53:27 PM 26.6536 -80.4014 335° Northwest 351 404 19,800 2,500 Climbing Miami Center
Sun 07:54:27 PM 26.7492 -80.4206 350° North 366 421 21,700 1,950 Climbing Miami Center
Sun 07:55:27 PM 26.8617 -80.4264 357° North 391 450 23,700 2,050 Climbing Miami Center
Sun 07:56:27 PM 26.9789 -80.4253 360° North 403 464 25,800 2,150 Climbing Miami Center
Sun 07:57:27 PM 27.0936 -80.4264 360° North 408 470 28,000 1,950 Climbing Miami Center
Sun 07:58:27 PM 27.2103 -80.4325 357° North 408 470 29,700 1,500 Climbing Miami Center
Sun 07:59:27 PM 27.3225 -80.4569 349° North 408 470 31,000 1,450 Climbing Miami Center
Sun 08:00:27 PM 27.4253 -80.5186 332° Northwest 408 470 32,600 1,800 Climbing Miami Center
Sun 08:01:27 PM 27.5006 -80.6028 315° West 392 451 34,600 1,450 Climbing Miami Center
Sun 08:02:27 PM 27.5775 -80.6919 314° West 392 451 35,500 950 Climbing Miami Center
Sun 08:03:27 PM 27.6564 -80.7814 315° West 392 451 36,500 1,250 Climbing Miami Center
Sun 08:04:27 PM 27.7314 -80.8661 315° West 392 451 38,000 750 Climbing Miami Center
Sun 08:05:27 PM 27.8125 -80.9511 317° Northwest 386 444 38,000  Level Miami Center
Sun 08:06:27 PM 27.8850 -81.0358 314° West 386 444 38,000  Level Miami Center
Sun 08:07:27 PM 27.9578 -81.1233 313° West 381 438 38,000  Level Miami Center
Sun 08:08:27 PM 28.0303 -81.2058 315° West 381 438 38,000  Level Miami Center
Sun 08:09:27 PM 28.1111 -81.2983 315° West 381 438 38,000  Level Miami Center
Sun 08:10:27 PM 28.1814 -81.3811 314° West 381 438 38,000  Level Miami Center
Sun 08:11:27 PM 28.2539 -81.4689 313° West 381 438 38,000  Level Miami Center
Sun 08:11:57 PM 28.2906 -81.5042 320° Northwest 383 441 38,000  Level Jacksonville Center
Sun 08:12:57 PM 28.3625 -81.5881 314° West 370 426 38,000  Level Jacksonville Center
Sun 08:13:57 PM 28.4300 -81.6675 314° West 371 427 38,000  Level Jacksonville Center
Sun 08:14:57 PM 28.5017 -81.7517 314° West 371 427 38,000  Level Jacksonville Center
Sun 08:15:57 PM 28.5733 -81.8358 314° West 371 427 38,000  Level Jacksonville Center
Sun 08:16:57 PM 28.6472 -81.9203 315° West 371 427 38,000  Level Jacksonville Center
Sun 08:17:57 PM 28.7250 -82.0094 315° West 371 427 38,000  Level Jacksonville Center
Sun 08:18:57 PM 28.7986 -82.0942 315° West 366 421 38,000  Level Jacksonville Center
Sun 08:19:57 PM 28.8722 -82.1836 313° West 373 429 38,000  Level Jacksonville Center
Sun 08:20:57 PM 28.9414 -82.2708 312° West 373 429 38,000  Level Jacksonville Center
Sun 08:21:57 PM 29.0064 -82.3442 315° West 373 429 38,000  Level Jacksonville Center
Sun 08:22:57 PM 29.0778 -82.4317 313° West 373 429 38,000  Level Jacksonville Center
Sun 08:23:57 PM 29.1533 -82.5192 315° West 373 429 38,000  Level Jacksonville Center
Sun 08:24:57 PM 29.2308 -82.6069 315° West 373 429 38,000  Level Jacksonville Center
Sun 08:25:57 PM 29.3039 -82.6997 312° West 379 436 38,000  Level Jacksonville Center
Sun 08:26:57 PM 29.3792 -82.7900 314° West 385 443 38,000  Level Jacksonville Center
Sun 08:27:57 PM 29.4647 -82.8903 314° West 390 449 38,000  Level Jacksonville Center
Sun 08:28:57 PM 29.5378 -82.9786 314° West 407 468 38,000  Level Jacksonville Center
Sun 08:29:57 PM 29.6317 -83.0550 325° Northwest 412 474 38,000  Level Jacksonville Center
Sun 08:30:57 PM 29.7528 -83.0936 345° North 418 481 38,000  Level Jacksonville Center
Sun 08:31:57 PM 29.8739 -83.1322 345° North 433 498 38,000  Level Jacksonville Center
Sun 08:32:57 PM 29.9947 -83.1731 344° North 444 511 38,000  Level Jacksonville Center
Sun 08:33:57 PM 30.1283 -83.2144 345° North 450 518 38,000  Level Jacksonville Center
Sun 08:34:57 PM 30.2492 -83.2556 344° North 450 518 38,000  Level Jacksonville Center
Sun 08:35:57 PM 30.3661 -83.2947 344° North 444 511 38,000  Level Jacksonville Center
Sun 08:36:57 PM 30.4850 -83.3336 344° North 437 503 38,000  Level Jacksonville Center
Sun 08:37:57 PM 30.5789 -83.3681 342° North 437 503 38,000  Level Jacksonville Center
Sun 08:38:57 PM 30.7081 -83.4097 344° North 442 509 38,000  Level Jacksonville Center
Sun 08:39:57 PM 30.8311 -83.4514 344° North 442 509 38,000  Level Jacksonville Center
Sun 08:40:57 PM 30.9458 -83.4933 343° North 437 503 38,000  Level Jacksonville Center
Sun 08:41:57 PM 31.0667 -83.5328 344° North 437 503 38,000  Level Jacksonville Center
Sun 08:42:57 PM 31.1897 -83.5750 344° North 442 509 38,000  Level Jacksonville Center
Sun 08:43:57 PM 31.3106 -83.6172 343° North 442 509 38,000  Level Jacksonville Center
Sun 08:45:29 PM 31.5061 -83.6858 343° North 450 518 38,000  Level Atlanta Center
Sun 08:46:29 PM 31.6106 -83.7144 347° North 450 518 38,000  Level Atlanta Center
Sun 08:47:29 PM 31.7297 -83.7631 341° North 450 518 38,000  Level Atlanta Center
Sun 08:48:29 PM 31.8550 -83.8067 344° North 441 507 38,000  Level Atlanta Center
Sun 08:49:29 PM 31.9719 -83.8478 343° North 441 507 38,000  Level Atlanta Center
Sun 08:50:29 PM 32.0889 -83.8869 344° North 435 501 38,000  Level Atlanta Center
Sun 08:51:29 PM 32.2078 -83.9308 343° North 440 506 38,000  Level Atlanta Center
Sun 08:52:29 PM 32.3269 -83.9725 344° North 440 506 38,000  Level Atlanta Center
Sun 08:53:29 PM 32.4458 -84.0142 344° North 440 506 38,000  Level Atlanta Center
Sun 08:54:29 PM 32.5669 -84.0561 344° North 440 506 38,000  Level Atlanta Center
Sun 08:55:29 PM 32.6839 -84.1006 342° North 440 506 38,000  Level Atlanta Center
Sun 08:56:29 PM 32.8069 -84.1403 345° North 440 506 38,000  Level Atlanta Center
Sun 08:57:29 PM 32.9239 -84.1822 343° North 440 506 38,000  Level Atlanta Center
Sun 08:58:29 PM 33.0511 -84.2272 343° North 435 501 38,000  Level Atlanta Center
Sun 08:59:29 PM 33.1700 -84.2719 343° North 435 501 38,000  Level Atlanta Center
Sun 09:00:29 PM 33.2700 -84.3097 342° North 435 501 38,000  Level Atlanta Center
Sun 09:01:29 PM 33.3889 -84.3522 343° North 440 506 38,000  Level Atlanta Center
Sun 09:02:29 PM 33.5036 -84.3925 344° North 426 490 38,000  Level Atlanta Center
Sun 09:03:29 PM 33.6203 -84.4356 343° North 426 490 38,000  Level Atlanta Center
Sun 09:04:29 PM 33.7308 -84.4833 340° North 421 484 38,000  Level Atlanta Center
Sun 09:05:29 PM 33.8581 -84.5417 339° North 432 497 38,000  Level Atlanta Center
Sun 09:06:29 PM 33.9725 -84.5900 341° North 432 497 38,000  Level Atlanta Center
Sun 09:07:29 PM 34.0850 -84.6408 339° North 432 497 38,000 -500 Level Atlanta Center
Sun 09:08:29 PM 34.2017 -84.6919 340° North 437 503 37,000 -900 Descending Atlanta Center
Sun 09:09:29 PM 34.2994 -84.7453 336° Northwest 437 503 36,200 -900 Descending Atlanta Center
Sun 09:10:29 PM 34.4011 -84.8217 328° Northwest 424 488 35,200 -1,000 Descending Atlanta Center
Sun 09:11:29 PM 34.5031 -84.9008 327° Northwest 430 495 34,200 -700 Descending Atlanta Center
Sun 09:12:29 PM 34.6006 -84.9725 329° Northwest 428 493 33,800 -750 Descending Atlanta Center
Sun 09:13:29 PM 34.7022 -85.0544 326° Northwest 409 471 32,700 -1,100 Descending Atlanta Center
Sun 09:14:29 PM 34.7956 -85.1264 328° Northwest 403 464 31,600 -850 Descending Atlanta Center
Sun 09:15:29 PM 34.8886 -85.1986 328° Northwest 398 458 31,000 -1,005 Descending Atlanta Center
Sun 09:17:34 PM 35.0642 -85.3342 328° Northwest 385 443 28,500 -1,427 Descending Memphis Center
Sun 09:18:34 PM 35.1481 -85.4000 327° Northwest 373 429 26,600 -1,800 Descending Memphis Center
Sun 09:19:34 PM 35.2225 -85.4872 316° Northwest 350 403 24,900 -1,300 Descending Memphis Center
Sun 09:20:34 PM 35.2842 -85.5675 313° West 332 382 24,000 -1,200 Descending Memphis Center
Sun 09:21:34 PM 35.3478 -85.6503 313° West 332 382 22,500 -2,050 Descending Memphis Center
Sun 09:22:34 PM 35.4133 -85.7333 314° West 337 388 19,900 -2,250 Descending Memphis Center
Sun 09:23:34 PM 35.4769 -85.8189 312° West 337 388 18,000 -1,850 Descending Memphis Center
Sun 09:24:34 PM 35.5406 -85.8997 314° West 332 382 16,200 -1,800 Descending Memphis Center
Sun 09:25:34 PM 35.6017 -85.9806 313° West 332 382 14,400 -1,700 Descending Memphis Center
Sun 09:26:34 PM 35.6564 -86.0492 314° West 327 376 12,800 -1,600 Descending Memphis Center
Sun 09:27:34 PM 35.7111 -86.1283 310° West 320 368 11,200 -1,550 Descending Memphis Center
Sun 09:28:34 PM 35.7617 -86.2075 308° West 304 350 9,700 -1,550 Descending Memphis Center
Sun 09:29:34 PM 35.8042 -86.2925 302° West 294 338 8,100 -1,550 Descending Memphis Center
Sun 09:30:34 PM 35.8486 -86.3747 304° West 289 333 6,600 -1,450 Descending Memphis Center
Sun 09:31:34 PM 35.8928 -86.4572 303° West 289 333 5,200 -1,200 Descending Memphis Center
Sun 09:32:34 PM 35.9372 -86.5447 302° West 284 327 4,200 -750 Descending Memphis Center
Sun 09:33:34 PM 35.9728 -86.6122 303° West 263 303 3,700 -700 Descending Memphis Center
Sun 09:34:34 PM 36.0036 -86.6725 302° West 229 264 2,800 -850 Descending Memphis Center
Sun 09:35:34 PM 36.0381 -86.7017 326° Northwest 150 173 2,000 -700 Descending Memphis Center
Sun 09:36:34 PM 36.0728 -86.6847 22° Northeast 126 145 1,400 -650 Descending Memphis Center
Sun 09:37:34 PM 36.1078 -86.6678 21° North 126 145 700 -400 Descending Memphis Center
Sun 09:38:34 PM 36.1369 -86.6614 10° North 126 145 600 -100 Descending Memphis Center
Sun 09:41:00 PM 36.1167 -86.6667 345° North  Level FlightAware Approximate
Sun 09:48:00 PM 36.1245 -86.6782 345° North  Level Estimated
Sun 09:49:00 PM 36.1245 -86.6782 345° North  Level Estimated
Sun 09:50:00 PM 36.1245 -86.6782 345° North  Level Estimated
Sun 09:51:00 PM 36.1245 -86.6782 345° North  Level Estimated
Sun 09:52:00 PM 36.1245 -86.6782 345° North  Level Estimated

Login

Don't have an account? Register now (free) for customized features, flight alerts, and more!